Time;durP1;ratioP1;P1;durP2;ratioP2;P2;SDS_P1;SDS_P2;PMS_P1;PMS_P2;Temp;Humidity;BMP_temperature;BMP_pressure;BME280_temperature;BME280_humidity;BME280_pressure;Samples;Min_cycle;Max_cycle;Signal;HPM_P1;HPM_P2
2024/01/23 00:00:25;;;;;;;11.77;2.25;;;;;;;;;;5014112;28;20030;-80
2024/01/23 00:02:50;;;;;;;13.23;1.70;;;;;;;;;;5030974;28;20148;-80
2024/01/23 00:05:16;;;;;;;15.90;1.75;;;;;;;;;;5017982;28;20029;-80
2024/01/23 00:07:41;;;;;;;17.75;2.20;;;;;;;;;;5030832;28;20519;-80
2024/01/23 00:10:07;;;;;;;10.55;1.85;;;;;;;;;;5030957;28;20029;-80
2024/01/23 00:12:33;;;;;;;14.65;1.63;;;;;;;;;;5022651;28;20037;-80
2024/01/23 00:14:58;;;;;;;10.68;1.80;;;;;;;;;;5036630;28;20047;-80
2024/01/23 00:17:24;;;;;;;11.40;2.33;;;;;;;;;;5016403;28;20103;-80
2024/01/23 00:19:50;;;;;;;14.38;2.28;;;;;;;;;;5026038;28;20057;-80
2024/01/23 00:22:15;;;;;;;12.00;1.75;;;;;;;;;;5032125;28;20030;-80
2024/01/23 00:24:40;;;;;;;14.18;2.25;;;;;;;;;;5030465;28;20124;-80
2024/01/23 00:27:06;;;;;;;10.90;2.00;;;;;;;;;;5029910;28;20026;-80
2024/01/23 00:29:34;;;;;;;13.93;1.83;;;;;;;;;;5025910;28;20483;-80
2024/01/23 00:32:03;;;;;;;14.50;2.70;;;;;;;;;;5027859;28;20045;-80
2024/01/23 00:34:28;;;;;;;13.65;1.65;;;;;;;;;;5011464;28;20025;-80
2024/01/23 00:36:53;;;;;;;15.63;2.17;;;;;;;;;;5032645;28;20033;-80
2024/01/23 00:39:19;;;;;;;12.10;1.65;;;;;;;;;;5015467;28;20092;-80
2024/01/23 00:41:44;;;;;;;15.95;2.15;;;;;;;;;;5032575;28;20033;-80
2024/01/23 00:44:10;;;;;;;12.93;2.20;;;;;;;;;;5032841;28;20022;-80
2024/01/23 00:46:35;;;;;;;9.95;1.73;;;;;;;;;;5013956;28;20124;-80
2024/01/23 00:49:00;;;;;;;13.43;2.38;;;;;;;;;;5017515;28;20032;-80
2024/01/23 00:51:28;;;;;;;10.27;1.88;;;;;;;;;;5033563;28;20472;-80
2024/01/23 00:53:53;;;;;;;10.45;1.88;;;;;;;;;;5030513;28;20028;-79
2024/01/23 00:56:18;;;;;;;10.00;2.17;;;;;;;;;;5029157;28;20079;-80
2024/01/23 00:58:44;;;;;;;10.93;1.92;;;;;;;;;;5031258;28;20038;-80
2024/01/23 01:01:09;;;;;;;14.27;1.80;;;;;;;;;;5035749;28;20029;-80
2024/01/23 01:03:34;;;;;;;13.93;2.25;;;;;;;;;;5032814;28;20025;-80
2024/01/23 01:06:00;;;;;;;15.07;2.72;;;;;;;;;;5034369;28;20389;-80
2024/01/23 01:08:25;;;;;;;11.32;2.13;;;;;;;;;;5036524;28;20025;-80
2024/01/23 01:10:51;;;;;;;18.23;2.13;;;;;;;;;;5037543;28;20083;-80
2024/01/23 01:13:16;;;;;;;12.23;2.35;;;;;;;;;;5031753;28;20297;-80
2024/01/23 01:15:41;;;;;;;13.63;2.53;;;;;;;;;;5033363;28;20025;-80
2024/01/23 01:18:07;;;;;;;15.07;2.33;;;;;;;;;;5037416;28;20041;-79
2024/01/23 01:20:33;;;;;;;13.15;1.92;;;;;;;;;;5035152;28;20030;-80
2024/01/23 01:22:59;;;;;;;12.90;2.25;;;;;;;;;;5014620;28;20021;-80
2024/01/23 01:25:25;;;;;;;12.70;2.47;;;;;;;;;;5016719;28;20044;-80
2024/01/23 01:27:50;;;;;;;13.43;1.83;;;;;;;;;;5031464;28;20391;-80
2024/01/23 01:30:16;;;;;;;9.82;1.85;;;;;;;;;;5028499;28;20038;-80
2024/01/23 01:32:41;;;;;;;12.90;2.13;;;;;;;;;;5026891;28;20022;-81
2024/01/23 01:35:07;;;;;;;18.38;2.67;;;;;;;;;;5030740;28;20032;-81
2024/01/23 01:37:33;;;;;;;10.60;1.92;;;;;;;;;;5031204;28;20033;-81
2024/01/23 01:39:58;;;;;;;10.52;2.08;;;;;;;;;;5020089;28;20488;-81
2024/01/23 01:42:23;;;;;;;11.52;2.20;;;;;;;;;;5031187;28;20033;-81
2024/01/23 01:44:50;;;;;;;10.75;1.90;;;;;;;;;;5028453;28;20127;-81
2024/01/23 01:47:17;;;;;;;13.40;2.17;;;;;;;;;;5017106;28;20068;-81
2024/01/23 01:49:43;;;;;;;14.02;2.10;;;;;;;;;;5026301;28;20026;-81
2024/01/23 01:52:10;;;;;;;15.23;2.25;;;;;;;;;;5028689;28;20036;-81
2024/01/23 01:54:37;;;;;;;8.75;1.83;;;;;;;;;;5018854;28;20119;-81
2024/01/23 01:57:02;;;;;;;14.02;1.75;;;;;;;;;;5010221;28;20032;-80
2024/01/23 01:59:28;;;;;;;12.45;1.80;;;;;;;;;;5026982;28;20033;-81
2024/01/23 02:01:53;;;;;;;15.10;2.47;;;;;;;;;;5028068;28;20044;-81
2024/01/23 02:04:19;;;;;;;10.93;2.38;;;;;;;;;;5024586;28;20118;-81
2024/01/23 02:06:46;;;;;;;18.73;2.47;;;;;;;;;;5017744;28;20025;-81
2024/01/23 02:09:12;;;;;;;12.88;2.13;;;;;;;;;;5016998;28;20166;-81
2024/01/23 02:11:53;;;;;;;13.52;2.20;;;;;;;;;;5016560;28;20551;-81
2024/01/23 02:14:18;;;;;;;11.95;2.63;;;;;;;;;;5034093;28;20029;-81
2024/01/23 02:16:44;;;;;;;13.93;1.80;;;;;;;;;;5015529;28;20300;-81
2024/01/23 02:19:13;;;;;;;14.10;1.88;;;;;;;;;;5011634;28;20037;-81
2024/01/23 02:21:38;;;;;;;9.27;1.70;;;;;;;;;;5030737;28;20029;-81
2024/01/23 02:24:04;;;;;;;15.45;2.10;;;;;;;;;;5014749;28;20048;-81
2024/01/23 02:26:29;;;;;;;9.95;1.90;;;;;;;;;;5014953;28;20037;-81
2024/01/23 02:28:55;;;;;;;11.52;1.73;;;;;;;;;;5029496;28;20025;-81
2024/01/23 02:31:20;;;;;;;11.57;1.58;;;;;;;;;;5026585;28;20041;-81
2024/01/23 02:33:46;;;;;;;13.93;2.00;;;;;;;;;;5035407;28;20032;-81
2024/01/23 02:36:11;;;;;;;12.80;2.00;;;;;;;;;;5016412;28;20479;-81
2024/01/23 02:38:36;;;;;;;11.27;2.15;;;;;;;;;;5030646;28;20388;-81
2024/01/23 02:41:03;;;;;;;13.20;2.20;;;;;;;;;;5027124;28;20055;-81
2024/01/23 02:43:28;;;;;;;9.93;1.85;;;;;;;;;;5013619;28;20033;-81
2024/01/23 02:45:56;;;;;;;11.88;2.42;;;;;;;;;;5008549;28;20572;-81
2024/01/23 02:48:22;;;;;;;14.50;2.85;;;;;;;;;;5018496;28;20075;-81
2024/01/23 02:50:47;;;;;;;9.23;1.63;;;;;;;;;;5026635;28;20025;-81
2024/01/23 02:53:13;;;;;;;13.80;1.83;;;;;;;;;;5010316;28;20506;-81
2024/01/23 02:55:38;;;;;;;11.40;1.67;;;;;;;;;;5020784;28;20551;-81
2024/01/23 02:58:03;;;;;;;12.07;1.48;;;;;;;;;;4995256;28;20553;-81
2024/01/23 03:00:29;;;;;;;12.73;2.42;;;;;;;;;;5029063;28;20054;-81
2024/01/23 03:02:54;;;;;;;14.55;2.15;;;;;;;;;;5026746;28;20562;-81
2024/01/23 03:05:20;;;;;;;15.55;2.10;;;;;;;;;;5029881;28;20029;-81
2024/01/23 03:07:45;;;;;;;9.45;1.73;;;;;;;;;;5020463;28;20476;-80
2024/01/23 03:10:12;;;;;;;14.30;1.65;;;;;;;;;;5031616;28;20041;-81
2024/01/23 03:12:37;;;;;;;13.35;2.22;;;;;;;;;;5026510;28;20071;-81
2024/01/23 03:15:04;;;;;;;13.80;2.00;;;;;;;;;;5030417;28;20056;-81
2024/01/23 03:17:29;;;;;;;17.15;2.55;;;;;;;;;;5015132;28;20034;-81
2024/01/23 03:19:54;;;;;;;15.52;3.03;;;;;;;;;;5029542;28;20079;-81
2024/01/23 03:22:20;;;;;;;16.80;2.55;;;;;;;;;;5022367;28;20040;-81
2024/01/23 03:24:45;;;;;;;14.18;1.70;;;;;;;;;;5029001;28;20029;-81
2024/01/23 03:27:11;;;;;;;16.75;2.33;;;;;;;;;;5030647;28;20060;-81
2024/01/23 03:29:44;;;;;;;17.27;2.38;;;;;;;;;;5028120;28;20028;-81
2024/01/23 03:32:10;;;;;;;15.57;2.80;;;;;;;;;;5009335;28;20033;-81
2024/01/23 03:34:38;;;;;;;16.77;2.20;;;;;;;;;;5009922;28;20803;-81
2024/01/23 03:37:04;;;;;;;16.52;2.00;;;;;;;;;;5022438;28;20572;-81
2024/01/23 03:39:30;;;;;;;13.60;2.38;;;;;;;;;;5026820;28;20034;-81
2024/01/23 03:41:56;;;;;;;17.55;2.40;;;;;;;;;;5013888;28;20033;-81
2024/01/23 03:44:24;;;;;;;14.70;2.20;;;;;;;;;;5016649;28;20033;-81
2024/01/23 03:46:50;;;;;;;11.27;1.80;;;;;;;;;;5028377;28;20049;-81
2024/01/23 03:49:15;;;;;;;16.42;2.17;;;;;;;;;;5016446;28;20068;-81
2024/01/23 03:51:41;;;;;;;14.63;1.92;;;;;;;;;;5027212;28;20092;-81
2024/01/23 03:54:06;;;;;;;12.32;1.40;;;;;;;;;;5027831;28;20038;-81
2024/01/23 03:56:31;;;;;;;9.18;2.05;;;;;;;;;;5040508;28;20059;-82
2024/01/23 03:58:57;;;;;;;17.10;2.30;;;;;;;;;;5029449;28;20032;-81
2024/01/23 04:01:22;;;;;;;13.70;2.30;;;;;;;;;;5019391;28;20087;-81
2024/01/23 04:03:48;;;;;;;16.92;2.38;;;;;;;;;;5031418;28;20121;-81
2024/01/23 04:06:13;;;;;;;17.67;2.60;;;;;;;;;;5028927;28;20068;-81
2024/01/23 04:08:40;;;;;;;14.60;2.55;;;;;;;;;;5025912;28;20518;-81
2024/01/23 04:11:06;;;;;;;15.02;2.22;;;;;;;;;;5035326;28;20103;-81
2024/01/23 04:13:31;;;;;;;13.30;2.17;;;;;;;;;;5016625;28;20495;-81
2024/01/23 04:15:56;;;;;;;13.07;2.08;;;;;;;;;;5027866;28;20033;-81
2024/01/23 04:18:22;;;;;;;13.18;2.35;;;;;;;;;;5027566;28;20493;-81
2024/01/23 04:20:48;;;;;;;13.88;2.50;;;;;;;;;;5042755;28;20032;-81
2024/01/23 04:23:13;;;;;;;13.50;2.17;;;;;;;;;;5036345;28;20116;-81
2024/01/23 04:25:38;;;;;;;17.58;2.28;;;;;;;;;;5032491;28;20060;-81
2024/01/23 04:28:05;;;;;;;13.25;2.13;;;;;;;;;;5029036;28;20037;-81
2024/01/23 04:30:32;;;;;;;11.50;2.10;;;;;;;;;;5012166;28;20495;-81
2024/01/23 04:32:57;;;;;;;14.05;2.05;;;;;;;;;;5028689;28;20029;-81
2024/01/23 04:35:23;;;;;;;13.82;2.28;;;;;;;;;;5033261;28;20028;-81
2024/01/23 04:37:49;;;;;;;16.40;1.92;;;;;;;;;;5029659;28;20147;-81
2024/01/23 04:40:15;;;;;;;14.02;2.40;;;;;;;;;;5030899;28;20228;-81
2024/01/23 04:42:41;;;;;;;18.70;2.40;;;;;;;;;;5031614;28;20036;-81
2024/01/23 04:45:08;;;;;;;16.15;2.15;;;;;;;;;;5038998;28;20032;-81
2024/01/23 04:47:34;;;;;;;15.40;2.25;;;;;;;;;;5027642;28;20034;-81
2024/01/23 04:50:00;;;;;;;14.52;2.67;;;;;;;;;;5026374;28;20518;-81
2024/01/23 04:52:25;;;;;;;13.70;2.03;;;;;;;;;;5029116;28;20116;-81
2024/01/23 04:54:50;;;;;;;14.98;2.42;;;;;;;;;;5038083;28;20395;-81
2024/01/23 04:57:17;;;;;;;15.40;2.58;;;;;;;;;;5030989;28;20079;-81
2024/01/23 04:59:42;;;;;;;13.57;1.88;;;;;;;;;;5034528;28;20487;-80
2024/01/23 05:02:08;;;;;;;14.50;2.55;;;;;;;;;;5034404;28;20056;-80
2024/01/23 05:04:33;;;;;;;14.40;2.22;;;;;;;;;;5029488;28;20085;-80
2024/01/23 05:06:58;;;;;;;11.80;1.88;;;;;;;;;;5035071;28;20026;-80
2024/01/23 05:09:24;;;;;;;12.73;1.92;;;;;;;;;;5034438;28;20026;-80
2024/01/23 05:11:50;;;;;;;11.50;2.42;;;;;;;;;;5021292;28;20151;-80
2024/01/23 05:14:17;;;;;;;13.00;2.25;;;;;;;;;;5035953;28;20414;-80
2024/01/23 05:16:42;;;;;;;10.60;1.92;;;;;;;;;;5015421;28;20083;-79
2024/01/23 05:19:08;;;;;;;16.85;2.33;;;;;;;;;;5029212;28;20051;-79
2024/01/23 05:21:33;;;;;;;13.60;2.22;;;;;;;;;;5032963;28;20068;-79
2024/01/23 05:24:02;;;;;;;14.05;1.85;;;;;;;;;;5034270;28;20029;-80
2024/01/23 05:26:28;;;;;;;13.32;2.22;;;;;;;;;;5030656;28;20075;-79
2024/01/23 05:28:53;;;;;;;14.63;2.10;;;;;;;;;;5034460;28;20048;-79
2024/01/23 05:31:19;;;;;;;21.55;2.97;;;;;;;;;;5031138;28;20488;-79
2024/01/23 05:33:44;;;;;;;14.35;2.13;;;;;;;;;;5031451;28;20028;-79
2024/01/23 05:36:09;;;;;;;15.77;2.90;;;;;;;;;;5024744;28;20037;-80
2024/01/23 05:38:35;;;;;;;13.40;3.15;;;;;;;;;;5024766;28;20029;-79
2024/01/23 05:41:01;;;;;;;17.40;2.13;;;;;;;;;;5024270;28;20475;-80
2024/01/23 05:43:26;;;;;;;13.25;2.25;;;;;;;;;;5023313;28;20045;-80
2024/01/23 05:45:53;;;;;;;15.65;2.00;;;;;;;;;;5006677;28;20033;-79
2024/01/23 05:48:18;;;;;;;13.63;2.08;;;;;;;;;;5023592;28;20033;-79
2024/01/23 05:50:44;;;;;;;15.73;2.30;;;;;;;;;;5032773;28;20029;-79
2024/01/23 05:53:09;;;;;;;17.52;2.17;;;;;;;;;;5018656;28;20025;-79
2024/01/23 05:55:35;;;;;;;18.42;2.38;;;;;;;;;;5024514;28;20483;-79
2024/01/23 05:58:00;;;;;;;13.15;2.35;;;;;;;;;;5013538;28;20111;-80
2024/01/23 06:00:26;;;;;;;17.17;2.28;;;;;;;;;;5024648;28;20546;-79
2024/01/23 06:02:51;;;;;;;11.00;1.75;;;;;;;;;;5008165;28;20082;-79
2024/01/23 06:05:17;;;;;;;14.88;2.13;;;;;;;;;;5025789;28;20120;-79
2024/01/23 06:07:48;;;;;;;11.82;1.75;;;;;;;;;;5024478;28;20383;-79
2024/01/23 06:10:14;;;;;;;12.68;2.08;;;;;;;;;;5036024;28;20048;-80
2024/01/23 06:12:39;;;;;;;16.83;2.22;;;;;;;;;;5031827;28;20032;-79
2024/01/23 06:15:06;;;;;;;11.52;2.65;;;;;;;;;;5012991;28;20033;-79
2024/01/23 06:17:32;;;;;;;19.25;2.85;;;;;;;;;;5016034;28;20052;-79
2024/01/23 06:19:57;;;;;;;12.30;1.73;;;;;;;;;;5029318;28;20480;-79
2024/01/23 06:22:23;;;;;;;13.63;2.67;;;;;;;;;;5030595;28;20041;-79
2024/01/23 06:25:02;;;;;;;14.27;1.80;;;;;;;;;;5031848;28;20021;-79
2024/01/23 06:27:27;;;;;;;14.07;2.10;;;;;;;;;;5029373;28;20387;-79
2024/01/23 06:29:53;;;;;;;14.20;2.33;;;;;;;;;;5030639;28;20108;-80
2024/01/23 06:32:18;;;;;;;14.30;2.00;;;;;;;;;;5030310;28;20056;-80
2024/01/23 06:34:44;;;;;;;14.88;2.25;;;;;;;;;;5031264;28;20098;-79
2024/01/23 06:37:09;;;;;;;13.15;2.10;;;;;;;;;;5015741;28;20126;-79
2024/01/23 06:39:35;;;;;;;9.57;1.70;;;;;;;;;;5023724;28;20030;-79
2024/01/23 06:42:00;;;;;;;17.58;2.60;;;;;;;;;;5033830;28;20084;-79
2024/01/23 06:44:25;;;;;;;12.52;1.75;;;;;;;;;;5036384;28;20036;-79
2024/01/23 06:46:51;;;;;;;16.42;2.25;;;;;;;;;;5013968;28;20029;-79
2024/01/23 06:49:16;;;;;;;15.23;2.13;;;;;;;;;;5016554;28;20033;-79
2024/01/23 06:51:41;;;;;;;19.42;2.50;;;;;;;;;;5031537;28;20025;-80
2024/01/23 06:54:07;;;;;;;17.05;2.63;;;;;;;;;;5032826;28;20075;-79
2024/01/23 06:56:34;;;;;;;14.38;2.28;;;;;;;;;;5029778;28;20022;-79
2024/01/23 06:58:59;;;;;;;17.98;1.98;;;;;;;;;;5030256;28;20053;-79
2024/01/23 07:01:26;;;;;;;15.27;2.10;;;;;;;;;;5017668;28;20092;-79
2024/01/23 07:03:52;;;;;;;18.23;2.38;;;;;;;;;;5034769;28;20037;-80
2024/01/23 07:06:17;;;;;;;13.65;2.08;;;;;;;;;;5033666;28;20021;-80
2024/01/23 07:08:43;;;;;;;10.50;2.20;;;;;;;;;;5028919;28;20022;-80
2024/01/23 07:11:08;;;;;;;14.88;2.45;;;;;;;;;;5029215;28;20075;-79
2024/01/23 07:13:34;;;;;;;12.85;2.33;;;;;;;;;;5033905;28;20025;-80
2024/01/23 07:15:59;;;;;;;16.45;2.40;;;;;;;;;;5032985;28;20025;-79
2024/01/23 07:18:24;;;;;;;13.45;2.50;;;;;;;;;;5029036;28;20470;-80
2024/01/23 07:20:50;;;;;;;17.48;2.85;;;;;;;;;;5030665;28;20063;-79
2024/01/23 07:23:15;;;;;;;18.27;2.58;;;;;;;;;;5029409;28;20056;-80
2024/01/23 07:25:41;;;;;;;16.02;2.40;;;;;;;;;;5036225;28;20109;-80
2024/01/23 07:28:06;;;;;;;14.85;2.00;;;;;;;;;;5012270;28;20369;-79
2024/01/23 07:30:32;;;;;;;12.75;2.17;;;;;;;;;;5008565;28;20057;-79
2024/01/23 07:32:57;;;;;;;16.90;2.35;;;;;;;;;;5013120;28;20037;-80
2024/01/23 07:35:22;;;;;;;15.38;2.45;;;;;;;;;;5029821;28;20032;-80
2024/01/23 07:37:48;;;;;;;15.15;2.47;;;;;;;;;;5038232;28;20041;-79
2024/01/23 07:40:15;;;;;;;16.15;2.83;;;;;;;;;;5035053;28;20480;-79
2024/01/23 07:42:40;;;;;;;14.73;1.88;;;;;;;;;;5031684;28;20025;-79
2024/01/23 07:45:06;;;;;;;13.90;2.80;;;;;;;;;;5026411;28;20505;-80
2024/01/23 07:47:31;;;;;;;15.10;2.00;;;;;;;;;;5024753;28;20022;-80
2024/01/23 07:49:57;;;;;;;10.23;2.55;;;;;;;;;;5017604;28;20498;-80
2024/01/23 07:52:22;;;;;;;17.27;2.53;;;;;;;;;;5041346;28;20020;-79
2024/01/23 07:54:50;;;;;;;16.05;2.08;;;;;;;;;;5036253;28;20095;-80
2024/01/23 07:57:15;;;;;;;12.60;1.95;;;;;;;;;;5033629;28;20026;-80
2024/01/23 07:59:41;;;;;;;13.25;1.90;;;;;;;;;;5040110;28;20034;-79
2024/01/23 08:02:06;;;;;;;12.98;1.98;;;;;;;;;;5016191;28;20064;-79
2024/01/23 08:04:32;;;;;;;16.50;2.30;;;;;;;;;;5034261;28;20061;-79
2024/01/23 08:06:57;;;;;;;12.77;2.03;;;;;;;;;;5015926;28;20483;-79
2024/01/23 08:09:23;;;;;;;14.57;2.67;;;;;;;;;;5031919;28;20039;-80
2024/01/23 08:11:49;;;;;;;19.00;2.78;;;;;;;;;;5032397;28;20479;-80
2024/01/23 08:14:15;;;;;;;18.85;2.53;;;;;;;;;;5031392;28;20399;-79
2024/01/23 08:16:44;;;;;;;16.50;2.85;;;;;;;;;;5015816;28;20033;-80
2024/01/23 08:19:09;;;;;;;16.63;2.28;;;;;;;;;;5017415;28;20480;-80
2024/01/23 08:21:35;;;;;;;16.10;2.67;;;;;;;;;;5021601;28;20033;-80
2024/01/23 08:24:00;;;;;;;15.68;2.35;;;;;;;;;;5036241;28;20026;-79
2024/01/23 08:26:26;;;;;;;14.02;2.05;;;;;;;;;;5026691;28;20479;-80
2024/01/23 08:28:51;;;;;;;14.05;2.80;;;;;;;;;;5025942;28;20024;-77
2024/01/23 08:31:17;;;;;;;16.42;2.53;;;;;;;;;;5035053;28;20052;-78
2024/01/23 08:33:43;;;;;;;16.25;2.45;;;;;;;;;;5037718;28;20033;-81
2024/01/23 08:36:09;;;;;;;12.35;2.38;;;;;;;;;;5034792;28;20036;-78
2024/01/23 08:38:34;;;;;;;14.15;2.13;;;;;;;;;;5024035;28;20029;-78
2024/01/23 08:41:00;;;;;;;12.48;2.20;;;;;;;;;;5044108;28;20047;-78
2024/01/23 08:43:25;;;;;;;17.15;3.17;;;;;;;;;;5018662;28;20120;-78
2024/01/23 08:45:51;;;;;;;17.02;2.53;;;;;;;;;;5036273;28;20036;-78
2024/01/23 08:48:22;;;;;;;15.25;2.28;;;;;;;;;;5042767;28;20433;-78
2024/01/23 08:50:48;;;;;;;16.08;2.78;;;;;;;;;;5006211;28;20032;-80
2024/01/23 08:53:14;;;;;;;16.13;2.45;;;;;;;;;;5036541;28;20033;-80
2024/01/23 08:55:39;;;;;;;15.27;2.45;;;;;;;;;;5036392;28;20476;-80
2024/01/23 08:58:04;;;;;;;12.73;2.58;;;;;;;;;;5032355;28;20037;-80
2024/01/23 09:00:31;;;;;;;11.98;1.80;;;;;;;;;;5004519;28;20124;-80
2024/01/23 09:02:56;;;;;;;14.38;2.28;;;;;;;;;;5035788;28;20112;-80
2024/01/23 09:05:22;;;;;;;14.52;2.67;;;;;;;;;;5020118;28;20538;-80
2024/01/23 09:07:47;;;;;;;20.58;2.70;;;;;;;;;;5035213;28;20017;-80
2024/01/23 09:10:12;;;;;;;16.77;2.35;;;;;;;;;;5020437;28;20044;-80
2024/01/23 09:12:38;;;;;;;16.98;2.35;;;;;;;;;;5026928;28;20399;-80
2024/01/23 09:15:05;;;;;;;13.88;3.20;;;;;;;;;;5035226;28;20502;-80
2024/01/23 09:17:31;;;;;;;16.88;2.80;;;;;;;;;;5036862;28;20129;-80
2024/01/23 09:19:56;;;;;;;16.60;2.47;;;;;;;;;;5034325;28;20493;-80
2024/01/23 09:22:21;;;;;;;20.48;2.97;;;;;;;;;;5034424;28;20025;-80
2024/01/23 09:24:47;;;;;;;16.10;2.65;;;;;;;;;;5035990;28;20029;-80
2024/01/23 09:27:12;;;;;;;16.02;3.55;;;;;;;;;;5021471;28;20112;-80
2024/01/23 09:29:38;;;;;;;14.25;2.30;;;;;;;;;;5041704;28;20170;-80
2024/01/23 09:32:04;;;;;;;15.25;2.40;;;;;;;;;;5036628;28;20029;-80
2024/01/23 09:34:29;;;;;;;15.57;2.30;;;;;;;;;;5039438;28;20026;-81
2024/01/23 09:36:55;;;;;;;15.30;2.75;;;;;;;;;;5031227;28;20040;-81
2024/01/23 09:39:21;;;;;;;14.90;2.65;;;;;;;;;;5040925;28;20036;-81
2024/01/23 09:41:51;;;;;;;16.00;2.50;;;;;;;;;;5020762;28;20036;-81
2024/01/23 09:44:21;;;;;;;16.05;3.20;;;;;;;;;;5011669;28;20116;-81
2024/01/23 09:46:50;;;;;;;15.75;3.08;;;;;;;;;;5038056;28;20040;-81
2024/01/23 09:49:16;;;;;;;14.60;2.72;;;;;;;;;;5029975;28;20025;-81
2024/01/23 09:51:42;;;;;;;18.00;2.67;;;;;;;;;;5028477;28;21894;-81
2024/01/23 09:54:10;;;;;;;16.80;3.22;;;;;;;;;;5030329;28;20021;-81
2024/01/23 09:56:36;;;;;;;15.40;2.50;;;;;;;;;;5034531;28;20021;-81
2024/01/23 09:59:03;;;;;;;23.10;3.35;;;;;;;;;;5036656;28;20029;-81
2024/01/23 10:01:30;;;;;;;14.45;3.20;;;;;;;;;;5037475;28;20033;-81
2024/01/23 10:03:58;;;;;;;19.20;3.60;;;;;;;;;;5036495;28;20475;-81
2024/01/23 10:06:25;;;;;;;16.33;2.95;;;;;;;;;;5033868;28;20033;-81
2024/01/23 10:08:51;;;;;;;19.13;3.00;;;;;;;;;;5034538;28;20497;-81
2024/01/23 10:11:16;;;;;;;15.45;3.45;;;;;;;;;;5017200;28;20119;-81
2024/01/23 10:13:42;;;;;;;19.00;3.30;;;;;;;;;;5020492;28;20104;-81
2024/01/23 10:16:09;;;;;;;15.43;2.63;;;;;;;;;;5035710;28;20029;-81
2024/01/23 10:18:35;;;;;;;17.00;2.97;;;;;;;;;;5020488;28;20032;-81
2024/01/23 10:21:00;;;;;;;13.63;2.90;;;;;;;;;;5035228;28;20403;-81
2024/01/23 10:23:27;;;;;;;19.13;3.33;;;;;;;;;;5021810;28;20026;-81
2024/01/23 10:25:54;;;;;;;14.73;2.80;;;;;;;;;;5036812;28;20036;-81
2024/01/23 10:28:22;;;;;;;15.02;2.85;;;;;;;;;;5036206;28;20025;-81
2024/01/23 10:30:47;;;;;;;15.10;2.67;;;;;;;;;;5017602;28;20108;-81
2024/01/23 10:33:13;;;;;;;14.02;3.28;;;;;;;;;;5024920;28;20444;-81
2024/01/23 10:35:41;;;;;;;21.40;3.45;;;;;;;;;;5036592;28;20553;-81
2024/01/23 10:38:06;;;;;;;17.23;3.10;;;;;;;;;;5016570;28;20030;-81
2024/01/23 10:40:32;;;;;;;15.15;3.08;;;;;;;;;;5031757;28;20041;-81
2024/01/23 10:43:01;;;;;;;14.57;3.10;;;;;;;;;;5045869;28;20049;-81
2024/01/23 10:45:27;;;;;;;10.88;2.47;;;;;;;;;;5031207;28;20084;-81
2024/01/23 10:47:53;;;;;;;11.48;2.47;;;;;;;;;;5016378;28;20036;-81
2024/01/23 10:50:22;;;;;;;11.75;2.67;;;;;;;;;;5032904;28;20025;-81
2024/01/23 10:52:49;;;;;;;12.80;2.97;;;;;;;;;;5036814;28;20039;-81
2024/01/23 10:55:18;;;;;;;18.95;3.00;;;;;;;;;;5035080;28;20045;-81
2024/01/23 10:57:47;;;;;;;16.17;2.75;;;;;;;;;;5017092;28;20025;-81
2024/01/23 11:00:16;;;;;;;15.35;3.40;;;;;;;;;;5025303;28;20407;-81
2024/01/23 11:02:53;;;;;;;18.02;2.97;;;;;;;;;;5035977;28;20014;-81
2024/01/23 11:05:23;;;;;;;17.88;3.08;;;;;;;;;;5027657;28;20032;-81
2024/01/23 11:08:09;;;;;;;18.55;3.00;;;;;;;;;;5041805;28;20036;-81
2024/01/23 11:10:52;;;;;;;18.17;3.10;;;;;;;;;;5042364;28;20052;-81
2024/01/23 11:13:23;;;;;;;20.08;2.88;;;;;;;;;;5021716;28;20028;-81
2024/01/23 11:15:49;;;;;;;12.30;2.70;;;;;;;;;;5039879;28;20036;-81
2024/01/23 11:18:25;;;;;;;15.60;2.78;;;;;;;;;;5041151;28;20037;-81
2024/01/23 11:21:09;;;;;;;13.23;2.85;;;;;;;;;;5042853;28;20518;-81
2024/01/23 11:23:39;;;;;;;15.68;3.28;;;;;;;;;;5038185;28;20089;-81
2024/01/23 11:26:15;;;;;;;19.27;2.75;;;;;;;;;;5015943;28;20029;-81
2024/01/23 11:28:44;;;;;;;20.20;3.00;;;;;;;;;;5041387;28;20052;-81
2024/01/23 11:31:15;;;;;;;16.65;2.80;;;;;;;;;;5034099;28;20117;-81
2024/01/23 11:33:41;;;;;;;15.82;2.90;;;;;;;;;;5032970;28;20176;-81
2024/01/23 11:36:26;;;;;;;15.43;2.88;;;;;;;;;;5030847;28;20321;-81
2024/01/23 11:38:58;;;;;;;12.60;2.83;;;;;;;;;;5029931;28;20032;-81
2024/01/23 11:41:27;;;;;;;17.02;3.65;;;;;;;;;;5038170;28;20029;-81
2024/01/23 11:44:13;;;;;;;13.40;2.50;;;;;;;;;;5018950;28;20478;-81
2024/01/23 11:46:40;;;;;;;14.65;2.72;;;;;;;;;;5035056;28;20029;-82
2024/01/23 11:49:06;;;;;;;19.83;3.22;;;;;;;;;;5012633;28;20021;-81
2024/01/23 11:51:35;;;;;;;24.13;3.15;;;;;;;;;;5021411;28;20115;-81
2024/01/23 11:54:04;;;;;;;17.25;2.67;;;;;;;;;;5020429;28;20025;-81
2024/01/23 11:56:30;;;;;;;17.83;3.53;;;;;;;;;;5034501;28;20533;-81
2024/01/23 11:58:59;;;;;;;13.13;2.50;;;;;;;;;;5032972;28;20045;-81
2024/01/23 12:01:27;;;;;;;17.05;3.28;;;;;;;;;;5033867;28;20109;-81
2024/01/23 12:03:53;;;;;;;13.25;2.53;;;;;;;;;;5019600;28;20025;-81
2024/01/23 12:06:19;;;;;;;14.60;3.00;;;;;;;;;;5037132;28;20032;-81
2024/01/23 12:08:45;;;;;;;13.38;2.55;;;;;;;;;;5041100;28;20021;-81
2024/01/23 12:11:12;;;;;;;20.55;2.83;;;;;;;;;;5038698;28;20538;-81
2024/01/23 12:13:38;;;;;;;17.55;2.75;;;;;;;;;;5029129;28;20658;-81
2024/01/23 12:16:08;;;;;;;15.60;3.33;;;;;;;;;;5034480;28;20033;-81
2024/01/23 12:18:33;;;;;;;11.95;2.53;;;;;;;;;;5032286;28;20026;-81
2024/01/23 12:20:59;;;;;;;14.07;2.30;;;;;;;;;;5018111;28;20368;-82
2024/01/23 12:23:25;;;;;;;13.60;2.50;;;;;;;;;;5034962;28;20032;-81
2024/01/23 12:25:50;;;;;;;15.98;2.28;;;;;;;;;;5035600;28;20048;-81
2024/01/23 12:28:17;;;;;;;18.80;3.00;;;;;;;;;;5017844;28;20479;-81
2024/01/23 12:30:46;;;;;;;19.27;3.45;;;;;;;;;;5035565;28;20017;-81
2024/01/23 12:33:17;;;;;;;21.70;3.00;;;;;;;;;;5033803;28;20029;-81
2024/01/23 12:35:44;;;;;;;15.65;2.60;;;;;;;;;;5035659;28;20021;-81
2024/01/23 12:38:13;;;;;;;15.90;2.53;;;;;;;;;;5018393;28;20104;-81
2024/01/23 12:40:38;;;;;;;14.00;2.50;;;;;;;;;;5014925;28;20102;-81
2024/01/23 12:43:04;;;;;;;16.10;2.60;;;;;;;;;;5032453;28;20056;-81
2024/01/23 12:45:29;;;;;;;18.73;3.25;;;;;;;;;;5035639;28;20379;-81
2024/01/23 12:47:55;;;;;;;21.70;2.72;;;;;;;;;;5034517;28;20478;-79
2024/01/23 12:50:25;;;;;;;12.75;2.25;;;;;;;;;;5021409;28;20033;-79
2024/01/23 12:52:55;;;;;;;19.92;2.83;;;;;;;;;;5040214;28;20118;-79
2024/01/23 12:55:21;;;;;;;13.63;2.50;;;;;;;;;;5037117;28;20057;-82
2024/01/23 12:57:47;;;;;;;17.88;2.38;;;;;;;;;;5021666;28;20496;-80
2024/01/23 13:00:15;;;;;;;17.80;2.47;;;;;;;;;;5033737;28;20040;-79
2024/01/23 13:02:43;;;;;;;16.27;2.40;;;;;;;;;;5029960;28;20603;-80
2024/01/23 13:05:11;;;;;;;10.70;2.35;;;;;;;;;;5034531;28;20021;-83
2024/01/23 13:07:42;;;;;;;12.98;2.65;;;;;;;;;;5016537;28;20111;-81
2024/01/23 13:10:09;;;;;;;13.73;2.50;;;;;;;;;;5037452;28;20022;-78
2024/01/23 13:12:35;;;;;;;17.23;2.45;;;;;;;;;;5030712;28;20048;-78
2024/01/23 13:15:01;;;;;;;18.05;2.90;;;;;;;;;;4996572;28;20041;-81
2024/01/23 13:17:26;;;;;;;18.83;3.30;;;;;;;;;;5034366;28;20092;-79
2024/01/23 13:19:52;;;;;;;13.07;2.55;;;;;;;;;;5032993;28;20120;-79
2024/01/23 13:22:18;;;;;;;17.88;2.88;;;;;;;;;;5032348;28;20096;-79
2024/01/23 13:24:43;;;;;;;17.92;3.20;;;;;;;;;;5025776;28;20030;-79
2024/01/23 13:27:09;;;;;;;15.60;2.95;;;;;;;;;;5032432;28;20377;-79
2024/01/23 13:29:38;;;;;;;21.65;3.00;;;;;;;;;;5043076;28;20025;-79
2024/01/23 13:32:06;;;;;;;16.98;2.78;;;;;;;;;;5018002;28;20041;-79
2024/01/23 13:34:33;;;;;;;25.48;3.38;;;;;;;;;;5021471;28;20116;-79
2024/01/23 13:36:59;;;;;;;15.63;2.92;;;;;;;;;;5033910;28;20115;-79
2024/01/23 13:39:24;;;;;;;27.55;3.33;;;;;;;;;;5017377;28;20029;-79
2024/01/23 13:41:50;;;;;;;22.35;3.95;;;;;;;;;;5032490;28;20130;-79
2024/01/23 13:44:16;;;;;;;19.85;3.95;;;;;;;;;;5023184;28;20290;-79
2024/01/23 13:46:42;;;;;;;20.52;3.15;;;;;;;;;;5008742;28;20478;-79
2024/01/23 13:49:08;;;;;;;15.38;3.15;;;;;;;;;;5027507;28;20476;-79
2024/01/23 13:51:35;;;;;;;24.42;3.42;;;;;;;;;;5037869;28;20117;-79
2024/01/23 13:54:03;;;;;;;31.52;3.83;;;;;;;;;;5017818;28;20567;-79
2024/01/23 13:56:29;;;;;;;22.10;3.65;;;;;;;;;;5014878;28;20064;-79
2024/01/23 13:58:54;;;;;;;25.15;3.88;;;;;;;;;;5008754;28;20736;-79
2024/01/23 14:01:20;;;;;;;15.13;2.80;;;;;;;;;;5014723;28;20122;-79
2024/01/23 14:03:45;;;;;;;25.00;3.55;;;;;;;;;;5031257;28;20396;-79
2024/01/23 14:06:11;;;;;;;17.27;3.20;;;;;;;;;;5026663;28;20197;-79
2024/01/23 14:08:41;;;;;;;18.40;3.03;;;;;;;;;;5023314;28;20029;-79
2024/01/23 14:11:07;;;;;;;19.10;2.90;;;;;;;;;;5027085;28;20033;-80
2024/01/23 14:13:32;;;;;;;22.92;3.72;;;;;;;;;;5008579;28;20029;-79
2024/01/23 14:15:59;;;;;;;18.30;2.80;;;;;;;;;;5027772;28;20033;-79
2024/01/23 14:18:24;;;;;;;23.23;3.67;;;;;;;;;;5026154;28;20112;-82
2024/01/23 14:20:50;;;;;;;20.70;3.80;;;;;;;;;;5023160;28;20071;-81
2024/01/23 14:23:15;;;;;;;20.27;4.30;;;;;;;;;;5011411;28;20361;-81
2024/01/23 14:25:41;;;;;;;25.20;3.35;;;;;;;;;;5009339;28;20091;-81